Time;durP1;ratioP1;P1;durP2;ratioP2;P2;SDS_P1;SDS_P2;PMS_P1;PMS_P2;Temp;Humidity;BMP_temperature;BMP_pressure;BME280_temperature;BME280_humidity;BME280_pressure;Samples;Min_cycle;Max_cycle;Signal;HPM_P1;HPM_P2
2023/07/13 00:00:33;;;;;;;28.17;5.22;;;;;;;;;;5022081;28;20029;-67
2023/07/13 00:02:58;;;;;;;33.33;5.88;;;;;;;;;;5020505;28;20041;-70
2023/07/13 00:05:23;;;;;;;32.30;5.75;;;;;;;;;;5022981;28;20528;-69
2023/07/13 00:07:51;;;;;;;32.60;5.55;;;;;;;;;;5018922;28;20059;-68
2023/07/13 00:10:18;;;;;;;28.63;5.15;;;;;;;;;;5035586;28;20588;-70
2023/07/13 00:12:44;;;;;;;22.73;4.22;;;;;;;;;;5017213;28;20037;-69
2023/07/13 00:15:13;;;;;;;26.08;4.57;;;;;;;;;;5018853;28;20884;-69
2023/07/13 00:17:39;;;;;;;22.00;4.32;;;;;;;;;;5020349;28;20052;-69
2023/07/13 00:20:05;;;;;;;18.23;3.35;;;;;;;;;;5020236;28;20037;-68
2023/07/13 00:22:30;;;;;;;19.65;3.63;;;;;;;;;;5024010;28;20127;-71
2023/07/13 00:24:56;;;;;;;19.20;3.47;;;;;;;;;;5035322;28;20262;-68
2023/07/13 00:27:21;;;;;;;11.10;2.42;;;;;;;;;;5021910;28;20037;-69
2023/07/13 00:29:46;;;;;;;8.93;2.33;;;;;;;;;;5019510;28;20037;-68
2023/07/13 00:32:12;;;;;;;10.52;2.13;;;;;;;;;;5018159;28;20041;-68
2023/07/13 00:34:38;;;;;;;12.98;2.35;;;;;;;;;;5018443;28;20033;-68
2023/07/13 00:37:06;;;;;;;8.32;1.85;;;;;;;;;;5020712;28;20045;-67
2023/07/13 00:39:31;;;;;;;8.10;1.90;;;;;;;;;;5018885;28;20114;-69
2023/07/13 00:41:56;;;;;;;10.38;2.00;;;;;;;;;;5020945;28;20691;-69
2023/07/13 00:44:23;;;;;;;7.63;1.38;;;;;;;;;;5018343;28;20555;-69
2023/07/13 00:46:48;;;;;;;6.45;1.48;;;;;;;;;;5051083;28;20044;-68
2023/07/13 00:49:16;;;;;;;5.20;1.35;;;;;;;;;;5019154;28;20033;-67
2023/07/13 00:51:47;;;;;;;12.63;1.50;;;;;;;;;;5018066;28;20166;-68
2023/07/13 00:54:14;;;;;;;8.45;1.67;;;;;;;;;;5036048;28;20024;-69
2023/07/13 00:56:41;;;;;;;11.73;2.10;;;;;;;;;;5050705;28;20087;-68
2023/07/13 00:59:10;;;;;;;15.73;1.98;;;;;;;;;;5020520;28;20025;-68
2023/07/13 01:01:36;;;;;;;9.23;2.20;;;;;;;;;;5018475;28;20037;-68
2023/07/13 01:04:02;;;;;;;8.07;1.95;;;;;;;;;;5018724;28;20061;-67
2023/07/13 01:06:27;;;;;;;14.32;2.00;;;;;;;;;;5015197;28;20159;-68
2023/07/13 01:08:57;;;;;;;11.18;2.00;;;;;;;;;;5015913;28;20033;-68
2023/07/13 01:11:26;;;;;;;12.10;2.13;;;;;;;;;;5020458;28;20067;-67
2023/07/13 01:13:51;;;;;;;15.15;1.88;;;;;;;;;;5018051;28;20030;-68
2023/07/13 01:16:23;;;;;;;10.48;2.20;;;;;;;;;;5021134;28;20040;-68
2023/07/13 01:18:49;;;;;;;10.63;2.00;;;;;;;;;;5020869;28;20143;-66
2023/07/13 01:21:17;;;;;;;16.17;2.70;;;;;;;;;;5051548;28;20498;-66
2023/07/13 01:23:44;;;;;;;14.38;2.67;;;;;;;;;;5031828;28;20508;-69
2023/07/13 01:26:09;;;;;;;17.20;2.65;;;;;;;;;;5019281;28;20036;-67
2023/07/13 01:28:36;;;;;;;17.27;2.60;;;;;;;;;;5019179;28;20087;-66
2023/07/13 01:31:02;;;;;;;15.77;2.20;;;;;;;;;;5023031;28;20045;-67
2023/07/13 01:33:27;;;;;;;14.18;2.20;;;;;;;;;;4997420;28;20758;-68
2023/07/13 01:35:57;;;;;;;12.55;2.50;;;;;;;;;;4996887;28;20178;-68
2023/07/13 01:38:23;;;;;;;12.45;2.65;;;;;;;;;;5006445;28;20091;-68
2023/07/13 01:40:48;;;;;;;18.30;2.63;;;;;;;;;;5000412;28;20037;-67
2023/07/13 01:43:14;;;;;;;12.13;2.42;;;;;;;;;;4997437;28;21903;-69
2023/07/13 01:45:39;;;;;;;12.07;2.88;;;;;;;;;;5015063;28;20140;-68
2023/07/13 01:48:06;;;;;;;12.93;2.50;;;;;;;;;;4998943;28;20033;-69
2023/07/13 01:50:32;;;;;;;17.67;2.70;;;;;;;;;;4999714;28;20977;-69
2023/07/13 01:52:57;;;;;;;11.90;2.65;;;;;;;;;;4999044;28;20037;-67
2023/07/13 01:55:23;;;;;;;14.57;3.13;;;;;;;;;;5006396;28;20033;-68
2023/07/13 01:57:48;;;;;;;15.30;2.58;;;;;;;;;;5017435;28;20145;-69
2023/07/13 02:00:14;;;;;;;13.57;2.85;;;;;;;;;;5019633;28;20398;-68
2023/07/13 02:02:39;;;;;;;15.68;3.42;;;;;;;;;;5018283;28;20340;-72
2023/07/13 02:05:05;;;;;;;17.52;2.83;;;;;;;;;;5016755;28;20144;-71
2023/07/13 02:07:30;;;;;;;17.38;2.75;;;;;;;;;;5016435;28;20037;-70
2023/07/13 02:09:56;;;;;;;12.80;2.55;;;;;;;;;;5014948;28;20048;-69
2023/07/13 02:12:21;;;;;;;12.60;2.65;;;;;;;;;;5016208;28;20069;-71
2023/07/13 02:14:46;;;;;;;14.65;2.80;;;;;;;;;;5017078;28;20033;-71
2023/07/13 02:17:12;;;;;;;12.32;2.85;;;;;;;;;;5018619;28;20128;-71
2023/07/13 02:19:37;;;;;;;12.05;2.92;;;;;;;;;;5018360;28;20049;-72
2023/07/13 02:22:02;;;;;;;13.20;2.80;;;;;;;;;;5047258;28;20037;-69
2023/07/13 02:24:30;;;;;;;13.45;2.53;;;;;;;;;;5018969;28;20033;-71
2023/07/13 02:26:55;;;;;;;10.65;2.53;;;;;;;;;;5048228;28;28179;-70
2023/07/13 02:29:20;;;;;;;14.02;2.60;;;;;;;;;;5006861;28;20041;-72
2023/07/13 02:31:46;;;;;;;9.45;2.60;;;;;;;;;;5016916;28;20033;-73
2023/07/13 02:34:11;;;;;;;13.13;2.50;;;;;;;;;;5017167;28;20165;-72
2023/07/13 02:36:36;;;;;;;10.13;2.65;;;;;;;;;;5031365;28;20036;-71
2023/07/13 02:39:03;;;;;;;9.43;2.70;;;;;;;;;;5024835;28;20032;-73
2023/07/13 02:41:28;;;;;;;12.00;2.28;;;;;;;;;;5012524;28;20041;-71
2023/07/13 02:43:54;;;;;;;13.10;2.58;;;;;;;;;;5016529;28;20037;-71
2023/07/13 02:46:19;;;;;;;14.52;3.00;;;;;;;;;;5015513;28;20061;-70
2023/07/13 02:48:47;;;;;;;17.10;2.63;;;;;;;;;;5016841;28;20149;-71
2023/07/13 02:51:13;;;;;;;19.33;3.05;;;;;;;;;;5018551;28;20042;-70
2023/07/13 02:53:38;;;;;;;15.02;3.20;;;;;;;;;;5017426;28;20057;-73
2023/07/13 02:56:07;;;;;;;14.05;2.90;;;;;;;;;;5015968;28;20053;-73
2023/07/13 02:58:32;;;;;;;18.90;3.00;;;;;;;;;;5016326;28;20044;-72
2023/07/13 03:00:57;;;;;;;18.42;3.33;;;;;;;;;;5018826;28;20055;-71
2023/07/13 03:03:26;;;;;;;19.25;3.03;;;;;;;;;;5017258;28;20095;-70
2023/07/13 03:05:59;;;;;;;15.10;3.22;;;;;;;;;;5013972;28;20041;-71
2023/07/13 03:08:25;;;;;;;19.25;3.03;;;;;;;;;;5016275;28;20083;-73
2023/07/13 03:10:58;;;;;;;16.50;3.30;;;;;;;;;;5018318;28;20623;-73
2023/07/13 03:13:23;;;;;;;22.33;4.05;;;;;;;;;;5017050;28;20630;-73
2023/07/13 03:15:49;;;;;;;16.75;3.17;;;;;;;;;;5049549;28;20064;-74
2023/07/13 03:18:14;;;;;;;13.55;3.05;;;;;;;;;;5019158;28;20068;-73
2023/07/13 03:20:39;;;;;;;28.25;4.00;;;;;;;;;;5021704;28;20044;-71
2023/07/13 03:23:05;;;;;;;15.30;3.50;;;;;;;;;;5018864;28;20183;-73
2023/07/13 03:25:32;;;;;;;19.55;3.55;;;;;;;;;;5017046;28;20041;-72
2023/07/13 03:27:57;;;;;;;13.80;3.13;;;;;;;;;;5048780;28;20037;-73
2023/07/13 03:30:23;;;;;;;17.13;2.90;;;;;;;;;;5033323;28;20985;-72
2023/07/13 03:32:48;;;;;;;16.00;3.65;;;;;;;;;;5019491;28;20120;-73
2023/07/13 03:35:14;;;;;;;17.20;4.05;;;;;;;;;;5017153;28;20067;-73
2023/07/13 03:37:42;;;;;;;18.90;3.50;;;;;;;;;;5046868;28;20053;-71
2023/07/13 03:40:09;;;;;;;18.52;3.47;;;;;;;;;;5016132;28;20098;-72
2023/07/13 03:42:34;;;;;;;20.48;3.67;;;;;;;;;;5016828;28;20053;-72
2023/07/13 03:44:59;;;;;;;21.77;3.67;;;;;;;;;;5015605;28;20975;-70
2023/07/13 03:47:25;;;;;;;14.60;4.03;;;;;;;;;;5014941;28;20031;-71
2023/07/13 03:49:50;;;;;;;14.05;3.40;;;;;;;;;;5030225;28;20377;-73
2023/07/13 03:52:15;;;;;;;15.52;3.28;;;;;;;;;;5011424;28;20033;-71
2023/07/13 03:54:40;;;;;;;17.98;3.38;;;;;;;;;;5014527;28;20033;-71
2023/07/13 03:57:06;;;;;;;18.75;3.50;;;;;;;;;;5008411;28;20037;-72
2023/07/13 03:59:31;;;;;;;18.70;3.47;;;;;;;;;;5012154;28;20047;-73
2023/07/13 04:01:57;;;;;;;13.75;2.85;;;;;;;;;;5034360;28;20026;-71
2023/07/13 04:04:22;;;;;;;20.00;3.92;;;;;;;;;;5015654;28;20037;-71
2023/07/13 04:06:47;;;;;;;16.95;3.40;;;;;;;;;;4996998;28;20038;-70
2023/07/13 04:09:13;;;;;;;17.42;3.28;;;;;;;;;;4999742;28;20488;-71
2023/07/13 04:11:38;;;;;;;14.35;3.10;;;;;;;;;;5015430;28;20128;-72
2023/07/13 04:14:03;;;;;;;12.90;3.05;;;;;;;;;;5013744;28;20033;-71
2023/07/13 04:16:29;;;;;;;15.98;3.70;;;;;;;;;;5014411;28;20548;-70
2023/07/13 04:18:59;;;;;;;10.13;2.92;;;;;;;;;;5047649;28;20049;-68
2023/07/13 04:21:25;;;;;;;12.32;2.78;;;;;;;;;;5002251;28;20049;-69
2023/07/13 04:23:55;;;;;;;19.13;3.25;;;;;;;;;;4995785;28;20033;-67
2023/07/13 04:26:20;;;;;;;14.13;3.13;;;;;;;;;;5026052;28;20583;-69
2023/07/13 04:28:46;;;;;;;15.02;3.15;;;;;;;;;;4997344;28;20037;-69
2023/07/13 04:31:11;;;;;;;16.60;2.85;;;;;;;;;;4993610;28;20408;-67
2023/07/13 04:33:37;;;;;;;16.35;3.15;;;;;;;;;;4999124;28;20045;-68
2023/07/13 04:36:02;;;;;;;15.98;3.67;;;;;;;;;;5002798;28;20037;-68
2023/07/13 04:38:29;;;;;;;14.88;3.17;;;;;;;;;;4999680;28;20053;-70
2023/07/13 04:40:55;;;;;;;17.63;3.47;;;;;;;;;;5031070;28;20168;-68
2023/07/13 04:43:23;;;;;;;14.70;3.50;;;;;;;;;;5001122;28;20065;-67
2023/07/13 04:45:50;;;;;;;14.07;2.80;;;;;;;;;;5013750;28;20045;-67
2023/07/13 04:48:15;;;;;;;13.20;3.47;;;;;;;;;;5013891;28;20062;-67
2023/07/13 04:50:40;;;;;;;13.13;3.13;;;;;;;;;;5019500;28;20045;-67
2023/07/13 04:53:06;;;;;;;16.92;3.08;;;;;;;;;;5017125;28;20153;-68
2023/07/13 04:55:31;;;;;;;11.23;2.90;;;;;;;;;;5019591;28;20047;-68
2023/07/13 04:57:58;;;;;;;12.63;3.47;;;;;;;;;;5018580;28;20052;-69
2023/07/13 05:00:23;;;;;;;21.95;3.75;;;;;;;;;;5053316;28;20126;-67
2023/07/13 05:02:49;;;;;;;14.73;3.40;;;;;;;;;;5019437;28;20044;-67
2023/07/13 05:05:14;;;;;;;10.07;3.00;;;;;;;;;;5020199;28;20048;-66
2023/07/13 05:07:39;;;;;;;15.57;3.72;;;;;;;;;;5015076;28;20051;-68
2023/07/13 05:10:05;;;;;;;14.95;3.67;;;;;;;;;;5000238;28;20068;-67
2023/07/13 05:12:30;;;;;;;16.00;3.58;;;;;;;;;;5001257;28;22313;-66
2023/07/13 05:14:56;;;;;;;20.88;3.58;;;;;;;;;;5020458;28;20103;-66
2023/07/13 05:17:21;;;;;;;13.20;3.40;;;;;;;;;;5015002;28;20056;-66
2023/07/13 05:19:47;;;;;;;18.48;3.95;;;;;;;;;;5018729;28;20650;-65
2023/07/13 05:22:12;;;;;;;13.65;3.10;;;;;;;;;;5017573;28;20517;-68
2023/07/13 05:24:37;;;;;;;11.88;3.25;;;;;;;;;;5016023;28;20559;-67
2023/07/13 05:27:03;;;;;;;15.48;3.33;;;;;;;;;;5013611;28;20753;-66
2023/07/13 05:29:28;;;;;;;15.38;3.35;;;;;;;;;;5017064;28;20029;-67
2023/07/13 05:31:53;;;;;;;14.20;3.40;;;;;;;;;;5004600;28;20485;-66
2023/07/13 05:34:21;;;;;;;12.48;2.88;;;;;;;;;;5018443;28;20044;-66
2023/07/13 05:36:46;;;;;;;13.93;3.33;;;;;;;;;;5018254;28;20041;-66
2023/07/13 05:39:14;;;;;;;18.50;3.40;;;;;;;;;;5016856;28;20092;-67
2023/07/13 05:41:42;;;;;;;13.52;3.33;;;;;;;;;;5049364;28;20553;-66
2023/07/13 05:44:07;;;;;;;15.68;3.03;;;;;;;;;;5028179;28;20043;-65
2023/07/13 05:46:33;;;;;;;18.88;4.13;;;;;;;;;;5025266;28;20038;-66
2023/07/13 05:48:59;;;;;;;16.80;3.28;;;;;;;;;;5014760;28;20114;-67
2023/07/13 05:51:24;;;;;;;10.48;3.22;;;;;;;;;;5019039;28;20045;-66
2023/07/13 05:53:52;;;;;;;14.40;3.15;;;;;;;;;;5017459;28;20041;-67
2023/07/13 05:56:17;;;;;;;13.63;3.47;;;;;;;;;;5016140;28;20820;-66
2023/07/13 05:58:42;;;;;;;11.07;3.38;;;;;;;;;;5035751;28;20099;-67
2023/07/13 06:01:12;;;;;;;13.40;3.28;;;;;;;;;;5017484;28;20033;-66
2023/07/13 06:03:40;;;;;;;15.80;3.47;;;;;;;;;;5018448;28;20040;-66
2023/07/13 06:06:06;;;;;;;15.48;3.13;;;;;;;;;;5016436;28;20036;-68
2023/07/13 06:08:31;;;;;;;44.40;5.13;;;;;;;;;;5017164;28;20049;-67
2023/07/13 06:11:07;;;;;;;13.07;3.15;;;;;;;;;;5016117;28;20033;-67
2023/07/13 06:13:33;;;;;;;13.75;2.92;;;;;;;;;;5016166;28;20044;-68
2023/07/13 06:15:58;;;;;;;16.20;3.45;;;;;;;;;;5019448;28;20033;-67
2023/07/13 06:18:24;;;;;;;18.00;3.38;;;;;;;;;;5011680;28;20055;-66
2023/07/13 06:20:49;;;;;;;15.23;3.10;;;;;;;;;;5017917;28;20041;-68
2023/07/13 06:23:14;;;;;;;15.57;2.75;;;;;;;;;;5016388;28;20804;-67
2023/07/13 06:25:40;;;;;;;14.27;3.17;;;;;;;;;;5049627;28;20025;-68
2023/07/13 06:28:05;;;;;;;13.30;2.95;;;;;;;;;;5017242;28;22508;-66
2023/07/13 06:30:31;;;;;;;15.65;3.15;;;;;;;;;;5017695;28;20071;-68
2023/07/13 06:32:57;;;;;;;11.75;2.75;;;;;;;;;;5029360;28;20044;-67
2023/07/13 06:35:22;;;;;;;15.82;3.30;;;;;;;;;;5015395;28;20033;-67
2023/07/13 06:37:47;;;;;;;14.68;3.00;;;;;;;;;;5049521;28;20044;-66
2023/07/13 06:40:13;;;;;;;15.55;3.08;;;;;;;;;;5050248;28;20038;-67
2023/07/13 06:42:38;;;;;;;15.00;3.58;;;;;;;;;;5017268;28;20035;-69
2023/07/13 06:45:04;;;;;;;19.45;3.22;;;;;;;;;;5032009;28;20135;-69
2023/07/13 06:47:29;;;;;;;12.65;3.05;;;;;;;;;;5014111;28;20539;-65
2023/07/13 06:49:54;;;;;;;14.05;3.50;;;;;;;;;;5018916;28;20057;-66
2023/07/13 06:52:19;;;;;;;13.75;2.97;;;;;;;;;;5049513;28;20037;-67
2023/07/13 06:54:45;;;;;;;14.43;3.03;;;;;;;;;;5016705;28;20037;-64
2023/07/13 06:57:10;;;;;;;13.65;3.60;;;;;;;;;;5013149;28;20040;-68
2023/07/13 06:59:35;;;;;;;10.82;3.42;;;;;;;;;;5005716;28;20033;-64
2023/07/13 07:02:01;;;;;;;15.05;3.28;;;;;;;;;;5008677;28;20037;-67
2023/07/13 07:04:26;;;;;;;11.48;3.50;;;;;;;;;;4992208;28;20144;-67
2023/07/13 07:06:52;;;;;;;12.40;3.53;;;;;;;;;;4993631;28;20041;-64
2023/07/13 07:09:17;;;;;;;10.60;3.00;;;;;;;;;;5024692;28;20064;-65
2023/07/13 07:11:45;;;;;;;12.50;3.22;;;;;;;;;;5003177;28;20121;-67
2023/07/13 07:14:11;;;;;;;14.23;3.67;;;;;;;;;;5014737;28;20037;-67
2023/07/13 07:16:38;;;;;;;13.18;3.63;;;;;;;;;;5014059;28;20091;-67
2023/07/13 07:19:04;;;;;;;11.10;3.15;;;;;;;;;;5011167;28;20045;-68
2023/07/13 07:21:29;;;;;;;21.10;3.63;;;;;;;;;;5033821;28;20503;-67
2023/07/13 07:23:54;;;;;;;12.57;3.22;;;;;;;;;;5017637;28;20048;-68
2023/07/13 07:26:22;;;;;;;10.80;3.10;;;;;;;;;;5020133;28;20570;-69
2023/07/13 07:28:47;;;;;;;14.27;3.03;;;;;;;;;;5014512;28;20037;-66
2023/07/13 07:31:12;;;;;;;10.30;2.95;;;;;;;;;;5047220;28;20565;-68
2023/07/13 07:33:38;;;;;;;10.40;2.65;;;;;;;;;;5015917;28;20056;-67
2023/07/13 07:36:03;;;;;;;10.18;2.80;;;;;;;;;;5032769;28;20032;-67
2023/07/13 07:38:29;;;;;;;12.40;2.95;;;;;;;;;;5033081;28;20041;-66
2023/07/13 07:40:54;;;;;;;11.13;2.97;;;;;;;;;;5017509;28;20047;-67
2023/07/13 07:43:19;;;;;;;11.32;2.90;;;;;;;;;;5019149;28;20047;-66
2023/07/13 07:45:45;;;;;;;11.45;2.80;;;;;;;;;;5015890;28;20041;-69
2023/07/13 07:48:10;;;;;;;11.57;3.10;;;;;;;;;;5015794;28;20047;-67
2023/07/13 07:50:36;;;;;;;13.38;2.60;;;;;;;;;;5018630;28;22261;-68
2023/07/13 07:53:02;;;;;;;15.02;3.15;;;;;;;;;;5016017;28;20631;-67
2023/07/13 07:55:28;;;;;;;11.23;2.65;;;;;;;;;;5016083;28;20163;-67
2023/07/13 07:57:54;;;;;;;14.60;3.33;;;;;;;;;;5018168;28;20794;-66
2023/07/13 08:00:20;;;;;;;10.75;2.70;;;;;;;;;;5023149;28;20071;-70
2023/07/13 08:02:45;;;;;;;11.77;2.33;;;;;;;;;;5015671;28;20037;-70
2023/07/13 08:05:11;;;;;;;8.48;2.65;;;;;;;;;;5015341;28;20183;-70
2023/07/13 08:07:37;;;;;;;11.07;2.58;;;;;;;;;;5015521;28;20040;-69
2023/07/13 08:10:05;;;;;;;11.75;2.47;;;;;;;;;;5002464;28;20049;-71
2023/07/13 08:12:33;;;;;;;11.90;2.83;;;;;;;;;;5032254;28;20055;-71
2023/07/13 08:15:00;;;;;;;13.50;3.15;;;;;;;;;;5009054;28;20033;-71
2023/07/13 08:17:25;;;;;;;8.75;2.75;;;;;;;;;;5013061;28;20779;-74
2023/07/13 08:19:51;;;;;;;11.02;2.85;;;;;;;;;;5019728;28;20130;-70
2023/07/13 08:22:19;;;;;;;13.85;3.00;;;;;;;;;;5040634;28;20561;-69
2023/07/13 08:24:44;;;;;;;27.27;4.82;;;;;;;;;;5032416;28;20725;-69
2023/07/13 08:27:13;;;;;;;11.77;2.70;;;;;;;;;;5027773;28;20032;-69
2023/07/13 08:29:39;;;;;;;7.70;2.58;;;;;;;;;;5006397;28;20517;-69
2023/07/13 08:32:05;;;;;;;9.50;2.40;;;;;;;;;;5016855;28;20060;-71
2023/07/13 08:34:31;;;;;;;12.55;2.70;;;;;;;;;;5029951;28;20040;-69
2023/07/13 08:36:56;;;;;;;11.18;2.72;;;;;;;;;;5025356;28;20071;-70
2023/07/13 08:39:23;;;;;;;9.48;2.40;;;;;;;;;;5016739;28;20169;-70
2023/07/13 08:41:52;;;;;;;10.85;2.60;;;;;;;;;;5015001;28;20175;-70
2023/07/13 08:44:26;;;;;;;16.70;2.53;;;;;;;;;;5012927;28;20033;-70
2023/07/13 08:46:52;;;;;;;13.30;2.60;;;;;;;;;;5010494;28;20293;-69
2023/07/13 08:49:22;;;;;;;14.88;2.47;;;;;;;;;;5012906;28;20098;-70
2023/07/13 08:51:50;;;;;;;13.10;2.90;;;;;;;;;;5016605;28;20340;-70
2023/07/13 08:54:16;;;;;;;12.80;2.90;;;;;;;;;;5045838;28;20315;-67
2023/07/13 08:56:41;;;;;;;14.85;3.03;;;;;;;;;;5016154;28;20045;-69
2023/07/13 08:59:11;;;;;;;13.10;2.85;;;;;;;;;;5003848;28;20052;-70
2023/07/13 09:01:42;;;;;;;11.75;2.72;;;;;;;;;;5008142;28;20041;-67
2023/07/13 09:04:11;;;;;;;10.45;2.60;;;;;;;;;;5011018;28;20033;-70
2023/07/13 09:07:11;;;;;;;13.90;2.72;;;;;;;;;;5003671;28;20226;-68
2023/07/13 09:09:39;;;;;;;11.05;2.83;;;;;;;;;;4969631;28;20046;-70
2023/07/13 09:12:05;;;;;;;10.45;2.60;;;;;;;;;;4999498;28;20486;-69
2023/07/13 09:14:38;;;;;;;9.95;2.78;;;;;;;;;;5003412;28;20278;-68
2023/07/13 09:17:12;;;;;;;12.00;3.33;;;;;;;;;;4995131;28;20119;-69
2023/07/13 09:19:40;;;;;;;14.25;3.28;;;;;;;;;;4994389;28;20065;-69
2023/07/13 09:22:10;;;;;;;12.35;2.80;;;;;;;;;;4991788;28;20034;-67
2023/07/13 09:24:36;;;;;;;14.82;3.10;;;;;;;;;;5025747;28;20042;-69
2023/07/13 09:27:03;;;;;;;11.68;2.55;;;;;;;;;;4995523;28;20068;-71
2023/07/13 09:29:32;;;;;;;16.13;2.97;;;;;;;;;;4997068;28;22202;-68
2023/07/13 09:32:01;;;;;;;15.30;3.22;;;;;;;;;;5026621;28;20076;-68
2023/07/13 09:34:26;;;;;;;16.27;2.85;;;;;;;;;;4995823;28;21885;-69
2023/07/13 09:36:54;;;;;;;13.15;2.70;;;;;;;;;;5014405;28;20449;-68
2023/07/13 09:39:25;;;;;;;14.32;3.00;;;;;;;;;;5015609;28;20142;-68
2023/07/13 09:41:50;;;;;;;;;;;;;;;;;;5015717;28;20501;-69
2023/07/13 09:44:30;;;;;;;9.55;2.75;;;;;;;;;;5013692;28;19920;-68
2023/07/13 09:46:56;;;;;;;15.80;3.15;;;;;;;;;;5010339;28;20037;-69
2023/07/13 09:49:39;;;;;;;30.83;4.32;;;;;;;;;;5034659;28;20037;-70
2023/07/13 09:52:06;;;;;;;15.05;2.80;;;;;;;;;;5015469;28;20556;-68
2023/07/13 09:54:35;;;;;;;14.00;2.90;;;;;;;;;;5042299;28;20120;-68
2023/07/13 09:57:03;;;;;;;;;;;;;;;;;;5012724;28;20037;-69
2023/07/13 09:59:30;;;;;;;13.93;2.90;;;;;;;;;;5044574;28;20377;-68
2023/07/13 10:01:57;;;;;;;13.50;3.33;;;;;;;;;;5012013;28;20407;-65
2023/07/13 10:04:27;;;;;;;18.65;3.58;;;;;;;;;;5044716;28;20113;-67
2023/07/13 10:07:04;;;;;;;25.10;3.88;;;;;;;;;;5014472;28;20060;-68
2023/07/13 10:09:29;;;;;;;9.82;2.90;;;;;;;;;;5012233;28;20060;-69
2023/07/13 10:11:54;;;;;;;14.43;3.30;;;;;;;;;;5013234;28;20200;-68
2023/07/13 10:14:23;;;;;;;12.48;3.35;;;;;;;;;;5028366;28;20029;-67
2023/07/13 10:16:53;;;;;;;11.98;3.25;;;;;;;;;;5010028;28;20041;-68
2023/07/13 10:19:22;;;;;;;16.25;3.50;;;;;;;;;;4992310;28;20077;-67
2023/07/13 10:21:54;;;;;;;13.88;3.25;;;;;;;;;;4993908;28;20329;-67
2023/07/13 10:24:21;;;;;;;15.52;3.25;;;;;;;;;;4975742;28;20061;-68
2023/07/13 10:26:53;;;;;;;19.88;3.67;;;;;;;;;;5006154;28;20509;-68
2023/07/13 10:29:20;;;;;;;18.25;4.28;;;;;;;;;;5003115;28;20829;-68
2023/07/13 10:31:45;;;;;;;15.15;3.13;;;;;;;;;;5012643;28;20627;-67
2023/07/13 10:34:11;;;;;;;12.88;3.28;;;;;;;;;;5016796;28;20037;-67
2023/07/13 10:36:40;;;;;;;17.17;3.47;;;;;;;;;;5031133;28;20056;-68
2023/07/13 10:39:06;;;;;;;13.00;3.50;;;;;;;;;;5012935;28;20595;-68
2023/07/13 10:41:41;;;;;;;18.73;3.00;;;;;;;;;;5017203;28;20063;-67
2023/07/13 10:44:11;;;;;;;14.75;3.58;;;;;;;;;;5017295;28;20638;-69
2023/07/13 10:46:37;;;;;;;10.32;3.10;;;;;;;;;;5019140;28;20500;-68
2023/07/13 10:49:04;;;;;;;13.93;3.17;;;;;;;;;;5015927;28;20176;-67
2023/07/13 10:51:30;;;;;;;13.18;2.92;;;;;;;;;;5014041;28;20090;-70
2023/07/13 10:54:21;;;;;;;15.65;3.10;;;;;;;;;;5013938;28;20477;-68
2023/07/13 10:56:51;;;;;;;13.02;3.30;;;;;;;;;;5011832;28;20028;-69
2023/07/13 10:59:27;;;;;;;17.40;3.22;;;;;;;;;;5016099;28;20206;-70
2023/07/13 11:02:09;;;;;;;19.02;3.20;;;;;;;;;;5015952;28;20051;-67
2023/07/13 11:04:45;;;;;;;14.38;3.10;;;;;;;;;;5010926;28;20048;-68
2023/07/13 11:07:22;;;;;;;20.80;3.13;;;;;;;;;;4995331;28;20144;-68
2023/07/13 11:09:51;;;;;;;19.85;3.53;;;;;;;;;;4996946;28;20037;-68
2023/07/13 11:12:24;;;;;;;22.15;3.83;;;;;;;;;;5011380;28;21187;-70
2023/07/13 11:14:55;;;;;;;14.23;2.92;;;;;;;;;;4995789;28;20048;-69
2023/07/13 11:17:29;;;;;;;16.73;2.80;;;;;;;;;;4995268;28;20047;-68
2023/07/13 11:20:11;;;;;;;14.25;2.83;;;;;;;;;;5012642;28;20051;-66
2023/07/13 11:22:50;;;;;;;20.35;3.13;;;;;;;;;;4997818;28;20056;-67
2023/07/13 11:25:37;;;;;;;11.70;3.05;;;;;;;;;;5028071;28;20030;-68
2023/07/13 11:28:04;;;;;;;13.10;3.20;;;;;;;;;;4993785;28;20042;-67
2023/07/13 11:30:32;;;;;;;12.60;2.67;;;;;;;;;;4994410;28;20021;-69
2023/07/13 11:33:08;;;;;;;16.30;3.28;;;;;;;;;;5049402;28;20021;-69
2023/07/13 11:35:35;;;;;;;17.42;3.05;;;;;;;;;;5011991;28;20551;-70
2023/07/13 11:38:02;;;;;;;12.40;2.95;;;;;;;;;;5014596;28;20140;-69
2023/07/13 11:40:28;;;;;;;16.60;3.20;;;;;;;;;;5017334;28;20078;-73
2023/07/13 11:42:59;;;;;;;18.52;3.40;;;;;;;;;;5015846;28;20041;-72
2023/07/13 11:45:24;;;;;;;11.95;2.75;;;;;;;;;;5015753;28;20037;-73
2023/07/13 11:47:50;;;;;;;17.77;3.40;;;;;;;;;;5015546;28;20115;-73
2023/07/13 11:50:19;;;;;;;19.45;3.10;;;;;;;;;;5014596;28;20052;-71
2023/07/13 11:52:45;;;;;;;17.98;3.67;;;;;;;;;;5014010;28;20049;-74
2023/07/13 11:55:15;;;;;;;10.73;2.65;;;;;;;;;;5045142;28;20048;-73
2023/07/13 11:57:44;;;;;;;17.17;3.07;;;;;;;;;;5026944;28;20065;-73
2023/07/13 12:00:15;;;;;;;18.60;2.92;;;;;;;;;;5001837;28;20516;-75
2023/07/13 12:02:42;;;;;;;17.80;3.80;;;;;;;;;;5021320;28;20049;-74
2023/07/13 12:05:10;;;;;;;19.55;2.88;;;;;;;;;;5016778;28;20032;-79
2023/07/13 12:07:37;;;;;;;18.58;3.33;;;;;;;;;;5018939;28;20049;-72
2023/07/13 12:10:09;;;;;;;13.10;3.15;;;;;;;;;;5015260;28;21073;-70
2023/07/13 12:12:37;;;;;;;13.55;3.45;;;;;;;;;;5015700;28;20120;-75
2023/07/13 12:15:06;;;;;;;21.02;3.67;;;;;;;;;;5015570;28;20037;-73
2023/07/13 12:17:34;;;;;;;17.60;3.00;;;;;;;;;;5014504;28;20025;-70
2023/07/13 12:19:59;;;;;;;17.00;3.28;;;;;;;;;;5011467;28;20892;-68
2023/07/13 12:22:25;;;;;;;12.18;3.03;;;;;;;;;;5016115;28;20036;-70
2023/07/13 12:24:51;;;;;;;12.98;2.95;;;;;;;;;;5017224;28;20033;-67
2023/07/13 12:27:22;;;;;;;15.27;3.67;;;;;;;;;;5009921;28;20041;-68
2023/07/13 12:29:53;;;;;;;17.88;3.13;;;;;;;;;;5013846;28;20797;-68
2023/07/13 12:32:19;;;;;;;15.05;2.80;;;;;;;;;;5012076;28;20816;-68
2023/07/13 12:35:08;;;;;;;15.40;3.58;;;;;;;;;;5004495;28;20029;-67
2023/07/13 12:37:34;;;;;;;14.15;3.03;;;;;;;;;;5011935;28;20793;-69
2023/07/13 12:40:01;;;;;;;14.05;3.00;;;;;;;;;;5014088;28;20104;-67
2023/07/13 12:42:28;;;;;;;15.77;3.20;;;;;;;;;;5010222;28;20056;-68
2023/07/13 12:45:16;;;;;;;16.55;3.28;;;;;;;;;;5013264;28;20029;-68
2023/07/13 12:47:42;;;;;;;14.05;2.90;;;;;;;;;;5009561;28;20040;-67
2023/07/13 12:50:22;;;;;;;19.67;3.30;;;;;;;;;;5010310;28;20769;-69
2023/07/13 12:53:03;;;;;;;18.50;3.42;;;;;;;;;;4993799;28;20033;-70
2023/07/13 12:55:32;;;;;;;20.48;3.38;;;;;;;;;;5015907;28;20134;-69
2023/07/13 12:58:05;;;;;;;13.10;2.78;;;;;;;;;;5048781;28;20131;-68
2023/07/13 13:00:38;;;;;;;13.00;2.70;;;;;;;;;;5015765;28;20037;-69
2023/07/13 13:03:13;;;;;;;13.18;3.08;;;;;;;;;;5013462;28;20036;-70
2023/07/13 13:05:38;;;;;;;9.57;2.80;;;;;;;;;;5016255;28;20037;-71
2023/07/13 13:08:04;;;;;;;13.45;3.05;;;;;;;;;;5016691;28;20124;-68
2023/07/13 13:10:29;;;;;;;17.25;3.00;;;;;;;;;;5011133;28;20037;-68
2023/07/13 13:12:54;;;;;;;11.43;3.17;;;;;;;;;;5014708;28;20069;-69
2023/07/13 13:15:23;;;;;;;12.73;3.30;;;;;;;;;;5013536;28;20430;-70
2023/07/13 13:17:48;;;;;;;10.25;2.80;;;;;;;;;;5012425;28;20118;-69
2023/07/13 13:20:18;;;;;;;12.27;3.13;;;;;;;;;;5010664;28;20054;-69
2023/07/13 13:22:46;;;;;;;13.93;2.97;;;;;;;;;;5014422;28;20674;-68
2023/07/13 13:25:14;;;;;;;8.25;2.80;;;;;;;;;;5014714;28;20038;-69
2023/07/13 13:27:43;;;;;;;11.63;3.03;;;;;;;;;;5013315;28;20177;-69
2023/07/13 13:30:13;;;;;;;12.88;3.20;;;;;;;;;;5015081;28;20029;-69
2023/07/13 13:32:47;;;;;;;14.52;3.35;;;;;;;;;;5015762;28;20056;-69
2023/07/13 13:35:14;;;;;;;11.68;2.80;;;;;;;;;;5029518;28;20057;-71
2023/07/13 13:37:42;;;;;;;14.88;3.05;;;;;;;;;;5011593;28;20549;-66
2023/07/13 13:40:21;;;;;;;8.98;2.65;;;;;;;;;;5014411;28;20033;-69
2023/07/13 13:42:46;;;;;;;11.23;2.92;;;;;;;;;;5027043;28;20103;-69
2023/07/13 13:45:17;;;;;;;10.27;2.70;;;;;;;;;;4996256;28;20495;-69
2023/07/13 13:47:43;;;;;;;9.77;2.90;;;;;;;;;;4993381;28;20037;-67
2023/07/13 13:50:16;;;;;;;12.25;2.67;;;;;;;;;;4992831;28;20095;-69
2023/07/13 13:52:42;;;;;;;14.18;2.97;;;;;;;;;;5024062;28;20038;-69
2023/07/13 13:55:11;;;;;;;11.50;2.88;;;;;;;;;;5007801;28;20820;-68
2023/07/13 13:57:37;;;;;;;19.48;3.00;;;;;;;;;;5013505;28;20041;-68
2023/07/13 14:00:02;;;;;;;11.95;2.85;;;;;;;;;;5042712;28;20068;-68
2023/07/13 14:02:28;;;;;;;10.30;2.83;;;;;;;;;;5011712;28;20033;-68
2023/07/13 14:05:01;;;;;;;10.93;2.50;;;;;;;;;;5010859;28;20029;-68
2023/07/13 14:07:26;;;;;;;14.10;2.97;;;;;;;;;;5012364;28;20049;-71
2023/07/13 14:09:56;;;;;;;14.40;2.95;;;;;;;;;;5001422;28;20033;-67
2023/07/13 14:12:21;;;;;;;9.45;2.45;;;;;;;;;;4992027;28;20084;-68
2023/07/13 14:14:46;;;;;;;11.43;2.50;;;;;;;;;;4988709;28;20970;-68
2023/07/13 14:17:21;;;;;;;14.75;2.92;;;;;;;;;;4989982;28;20497;-68
2023/07/13 14:19:50;;;;;;;10.75;2.75;;;;;;;;;;5010180;28;20454;-68
2023/07/13 14:22:16;;;;;;;11.23;2.35;;;;;;;;;;5011677;28;20068;-68
2023/07/13 14:24:41;;;;;;;9.02;2.67;;;;;;;;;;5012336;28;20087;-70
2023/07/13 14:27:10;;;;;;;10.32;3.05;;;;;;;;;;5002371;28;20030;-70
2023/07/13 14:29:37;;;;;;;;;;;;;;;;;;5003151;28;20083;-69
2023/07/13 14:32:06;;;;;;;12.95;2.83;;;;;;;;;;5010436;28;19924;-69